createdAt,value
2022-08-30T00:00:19.411Z,21.41
2022-08-30T00:04:24.594Z,21.39
2022-08-30T00:08:27.970Z,21.35
2022-08-30T00:12:32.695Z,21.32
2022-08-30T00:16:35.978Z,21.28
2022-08-30T00:20:40.464Z,21.23
2022-08-30T00:24:44.435Z,21.21
2022-08-30T00:28:47.467Z,21.19
2022-08-30T00:32:50.969Z,21.18
2022-08-30T00:36:55.486Z,21.16
2022-08-30T00:40:59.790Z,21.16
2022-08-30T00:45:12.422Z,21.13
2022-08-30T00:49:15.713Z,21.11
2022-08-30T00:53:22.903Z,21.10
2022-08-30T00:57:26.245Z,21.06
2022-08-30T01:01:30.638Z,21.03
2022-08-30T01:05:39.053Z,21.02
2022-08-30T01:09:43.816Z,20.98
2022-08-30T01:13:48.219Z,20.95
2022-08-30T01:17:51.854Z,20.92
2022-08-30T01:22:02.611Z,20.89
2022-08-30T01:26:07.788Z,20.86
2022-08-30T01:30:12.106Z,20.83
2022-08-30T01:34:15.252Z,20.79
2022-08-30T01:38:19.795Z,20.74
2022-08-30T01:42:24.673Z,20.69
2022-08-30T01:46:36.060Z,20.66
2022-08-30T01:50:40.187Z,20.63
2022-08-30T01:54:45.149Z,20.62
2022-08-30T01:58:49.925Z,20.59
2022-08-30T02:02:52.996Z,20.54
2022-08-30T02:06:56.354Z,20.50
2022-08-30T02:11:00.164Z,20.49
2022-08-30T02:15:06.229Z,20.46
2022-08-30T02:19:09.483Z,20.44
2022-08-30T02:23:16.065Z,20.39
2022-08-30T02:27:19.355Z,20.36
2022-08-30T02:31:24.551Z,20.28
2022-08-30T02:35:28.343Z,20.26
2022-08-30T02:39:31.594Z,20.26
2022-08-30T02:43:34.786Z,20.25
2022-08-30T02:47:42.604Z,20.23
2022-08-30T02:51:50.398Z,20.22
2022-08-30T02:55:53.480Z,20.21
2022-08-30T02:59:56.503Z,20.18
2022-08-30T03:04:01.056Z,20.16
2022-08-30T03:08:04.866Z,20.15
2022-08-30T03:12:09.093Z,20.16
2022-08-30T03:16:12.786Z,20.15
2022-08-30T03:20:17.904Z,20.13
2022-08-30T03:24:21.700Z,20.12
2022-08-30T03:28:24.959Z,20.11
2022-08-30T03:32:28.224Z,20.08
2022-08-30T03:36:32.990Z,20.05
2022-08-30T03:40:37.225Z,20.02
2022-08-30T03:44:41.176Z,20.00
2022-08-30T03:48:45.060Z,19.99
2022-08-30T03:52:49.700Z,19.96
2022-08-30T03:56:52.788Z,19.92
2022-08-30T04:00:55.917Z,19.90
2022-08-30T04:04:59.222Z,19.90
2022-08-30T04:09:03.807Z,19.88
2022-08-30T04:13:07.171Z,19.87
2022-08-30T04:17:10.310Z,19.88
2022-08-30T04:21:14.210Z,19.87
2022-08-30T04:25:18.948Z,19.85
2022-08-30T04:29:22.032Z,19.82
2022-08-30T04:33:25.152Z,19.80
2022-08-30T04:37:28.576Z,19.80
2022-08-30T04:41:33.219Z,19.78
2022-08-30T04:45:36.474Z,19.79
2022-08-30T04:49:40.199Z,19.78
2022-08-30T04:53:44.256Z,19.77
2022-08-30T04:57:48.915Z,19.75
2022-08-30T05:01:52.312Z,19.77
2022-08-30T05:05:55.603Z,19.75
2022-08-30T05:09:59.094Z,19.75
2022-08-30T05:14:03.673Z,19.78
2022-08-30T05:18:07.868Z,19.80
2022-08-30T05:22:14.847Z,19.83
2022-08-30T05:26:20.425Z,19.86
2022-08-30T05:30:27.666Z,19.86
2022-08-30T05:34:31.741Z,19.87
2022-08-30T05:38:35.300Z,19.91
2022-08-30T05:42:41.452Z,19.93
2022-08-30T05:46:47.984Z,19.97
2022-08-30T05:50:51.238Z,20.02
2022-08-30T05:54:56.300Z,20.07
2022-08-30T05:59:00.651Z,20.12
2022-08-30T06:03:05.584Z,20.15
2022-08-30T06:07:11.645Z,20.21
2022-08-30T06:11:20.361Z,20.27
2022-08-30T06:15:23.738Z,20.39
2022-08-30T06:19:28.355Z,20.47
2022-08-30T06:23:31.897Z,20.56
2022-08-30T06:27:35.314Z,20.67
2022-08-30T06:31:38.863Z,20.78
2022-08-30T06:35:58.125Z,20.88
2022-08-30T06:40:08.883Z,20.99
2022-08-30T06:44:14.747Z,21.11
2022-08-30T06:48:18.690Z,21.15
2022-08-30T06:52:35.149Z,21.23
2022-08-30T06:56:55.180Z,21.31
2022-08-30T07:01:01.080Z,21.44
2022-08-30T07:05:05.388Z,21.54
2022-08-30T07:09:08.627Z,21.62
2022-08-30T07:13:14.927Z,21.78
2022-08-30T07:17:35.794Z,21.91
2022-08-30T07:21:41.067Z,22.04
2022-08-30T07:25:44.442Z,22.19
2022-08-30T07:29:50.312Z,22.36
2022-08-30T07:33:54.187Z,22.50
2022-08-30T07:37:57.588Z,22.69
2022-08-30T07:42:01.205Z,22.83
2022-08-30T07:46:09.158Z,22.92
2022-08-30T07:50:13.107Z,23.10
2022-08-30T07:54:16.826Z,23.26
2022-08-30T07:58:20.869Z,23.46
2022-08-30T08:02:25.700Z,23.59
2022-08-30T08:06:34.837Z,23.72
2022-08-30T08:10:39.833Z,23.83
2022-08-30T08:14:43.253Z,23.91
2022-08-30T08:18:47.871Z,23.98
2022-08-30T08:22:51.161Z,24.13
2022-08-30T08:26:55.169Z,24.25
2022-08-30T08:30:58.667Z,24.36
2022-08-30T08:35:03.643Z,24.47
2022-08-30T08:39:08.848Z,24.49
2022-08-30T08:43:15.312Z,24.61
2022-08-30T08:47:25.236Z,24.68
2022-08-30T08:51:53.197Z,24.83
2022-08-30T08:55:56.651Z,24.99
2022-08-30T09:00:00.457Z,25.08
2022-08-30T09:04:09.416Z,25.19
2022-08-30T09:08:17.060Z,25.32
2022-08-30T09:12:22.395Z,25.43
2022-08-30T09:16:52.798Z,25.53
2022-08-30T09:21:07.550Z,25.69
2022-08-30T09:25:24.831Z,25.83
2022-08-30T09:29:28.149Z,25.83
2022-08-30T09:33:32.136Z,25.90
2022-08-30T09:37:39.556Z,25.97
2022-08-30T09:41:45.768Z,26.08
2022-08-30T09:46:05.662Z,26.20
2022-08-30T09:50:12.294Z,26.27
2022-08-30T09:54:23.011Z,26.40
2022-08-30T09:58:45.502Z,26.55
2022-08-30T10:03:08.849Z,26.61
2022-08-30T10:07:19.632Z,26.71
2022-08-30T10:11:29.340Z,26.78
2022-08-30T10:15:39.932Z,26.92
2022-08-30T10:19:58.352Z,27.05
2022-08-30T10:24:05.914Z,27.18
2022-08-30T10:28:15.790Z,27.24
2022-08-30T10:32:26.651Z,27.29
2022-08-30T10:36:37.636Z,27.32
2022-08-30T10:41:03.512Z,27.38
2022-08-30T10:45:14.581Z,27.50
2022-08-30T10:49:22.697Z,27.58
2022-08-30T10:53:34.049Z,27.59
2022-08-30T10:57:37.626Z,27.57
2022-08-30T11:02:09.071Z,27.60
2022-08-30T11:06:23.474Z,27.71
2022-08-30T11:10:49.625Z,27.73
2022-08-30T11:14:54.940Z,27.81
2022-08-30T11:18:59.167Z,27.88
2022-08-30T11:23:32.832Z,27.97
2022-08-30T11:27:48.600Z,28.01
2022-08-30T11:31:51.869Z,28.02
2022-08-30T11:35:55.679Z,28.12
2022-08-30T11:40:03.973Z,28.16
2022-08-30T11:44:30.081Z,28.16
2022-08-30T11:48:54.231Z,28.21
2022-08-30T11:53:05.609Z,28.28
2022-08-30T11:57:22.029Z,28.33
2022-08-30T12:01:49.668Z,28.32
2022-08-30T12:05:59.562Z,28.35
2022-08-30T12:10:07.922Z,28.51
2022-08-30T12:14:36.385Z,28.57
2022-08-30T12:18:46.810Z,28.58
2022-08-30T12:22:50.852Z,28.55
2022-08-30T12:26:58.319Z,28.60
2022-08-30T12:31:12.734Z,28.57
2022-08-30T12:35:23.444Z,28.65
2022-08-30T12:39:29.640Z,28.71
2022-08-30T12:43:40.685Z,28.71
2022-08-30T12:47:50.934Z,28.76
2022-08-30T12:51:54.413Z,28.61
2022-08-30T12:56:00.523Z,28.53
2022-08-30T13:00:06.201Z,28.47
2022-08-30T13:04:21.027Z,28.50
2022-08-30T13:08:34.617Z,28.52
2022-08-30T13:12:40.316Z,28.50
2022-08-30T13:16:45.459Z,28.39
2022-08-30T13:20:50.426Z,28.28
2022-08-30T13:24:54.146Z,28.18
2022-08-30T13:28:59.132Z,28.18
2022-08-30T13:33:02.840Z,28.29
2022-08-30T13:37:44.350Z,28.30
2022-08-30T13:41:33.767Z,28.25
2022-08-30T13:45:42.465Z,28.20
2022-08-30T13:49:46.881Z,28.18
2022-08-30T13:53:53.370Z,28.15
2022-08-30T13:57:57.918Z,28.11
2022-08-30T14:02:10.676Z,28.15
2022-08-30T14:06:32.279Z,28.16
2022-08-30T14:10:46.552Z,28.15
2022-08-30T14:14:50.690Z,28.13
2022-08-30T14:18:57.166Z,28.08
2022-08-30T14:23:00.416Z,28.01
2022-08-30T14:27:05.753Z,27.95
2022-08-30T14:31:09.692Z,27.89
2022-08-30T14:35:12.952Z,27.85
2022-08-30T14:39:19.219Z,27.80
2022-08-30T14:43:23.905Z,27.76
2022-08-30T14:47:29.577Z,27.72
2022-08-30T14:51:33.093Z,27.70
2022-08-30T14:55:37.767Z,27.63
2022-08-30T14:59:42.966Z,27.55
2022-08-30T15:03:47.125Z,27.48
2022-08-30T15:07:52.942Z,27.44
2022-08-30T15:11:59.676Z,27.39
2022-08-30T15:16:11.002Z,27.35
2022-08-30T15:20:14.931Z,27.31
2022-08-30T15:24:24.826Z,27.24
2022-08-30T15:28:32.970Z,27.17
2022-08-30T15:32:37.659Z,27.14
2022-08-30T15:36:42.424Z,27.10
2022-08-30T15:40:46.766Z,27.08
2022-08-30T15:44:52.690Z,27.04
2022-08-30T15:49:01.590Z,27.02
2022-08-30T15:53:07.476Z,26.97
2022-08-30T15:57:11.023Z,26.93
2022-08-30T16:01:15.620Z,26.93
2022-08-30T16:05:23.801Z,26.85
2022-08-30T16:09:30.237Z,26.83
2022-08-30T16:13:36.359Z,26.77
2022-08-30T16:17:39.889Z,26.76
2022-08-30T16:21:44.899Z,26.71
2022-08-30T16:25:48.214Z,26.70
2022-08-30T16:29:52.159Z,26.65
2022-08-30T16:33:57.372Z,26.61
2022-08-30T16:38:08.478Z,26.58
2022-08-30T16:42:12.315Z,26.53
2022-08-30T16:46:18.005Z,26.45
2022-08-30T16:50:23.349Z,26.43
2022-08-30T16:54:28.907Z,26.42
2022-08-30T16:58:32.405Z,26.37
2022-08-30T17:02:35.620Z,26.29
2022-08-30T17:06:39.121Z,26.23
2022-08-30T17:10:47.136Z,26.20
2022-08-30T17:14:53.229Z,26.16
2022-08-30T17:18:59.551Z,26.08
2022-08-30T17:23:04.167Z,26.03
2022-08-30T17:27:09.003Z,26.00
2022-08-30T17:31:14.729Z,25.91
2022-08-30T17:35:18.432Z,25.84
2022-08-30T17:39:23.575Z,25.71
2022-08-30T17:43:28.714Z,25.68
2022-08-30T17:47:31.982Z,25.63
2022-08-30T17:51:42.797Z,25.58
2022-08-30T17:55:49.417Z,25.50
2022-08-30T17:59:54.300Z,25.48
2022-08-30T18:04:01.964Z,25.42
2022-08-30T18:08:09.414Z,25.33
2022-08-30T18:12:13.529Z,25.29
2022-08-30T18:16:21.679Z,25.25
2022-08-30T18:20:31.197Z,25.20
2022-08-30T18:24:35.090Z,25.15
2022-08-30T18:28:38.434Z,25.11
2022-08-30T18:32:43.710Z,25.08
2022-08-30T18:36:47.089Z,25.02
2022-08-30T18:40:50.864Z,24.99
2022-08-30T18:44:54.269Z,24.91
2022-08-30T18:49:00.140Z,24.88
2022-08-30T18:53:03.479Z,24.82
2022-08-30T18:57:07.642Z,24.77
2022-08-30T19:01:13.898Z,24.71
2022-08-30T19:05:22.209Z,24.65
2022-08-30T19:09:27.237Z,24.58
2022-08-30T19:13:31.616Z,24.54
2022-08-30T19:17:35.123Z,24.48
2022-08-30T19:21:40.305Z,24.42
2022-08-30T19:25:44.574Z,24.35
2022-08-30T19:29:53.666Z,24.25
2022-08-30T19:33:57.446Z,24.18
2022-08-30T19:38:02.163Z,24.12
2022-08-30T19:42:05.790Z,24.06
2022-08-30T19:46:09.621Z,24.01
2022-08-30T19:50:15.719Z,23.95
2022-08-30T19:54:20.514Z,23.89
2022-08-30T19:58:24.320Z,23.81
2022-08-30T20:02:28.270Z,23.72
2022-08-30T20:06:32.522Z,23.65
2022-08-30T20:10:37.925Z,23.58
2022-08-30T20:14:42.667Z,23.49
2022-08-30T20:18:48.070Z,23.41
2022-08-30T20:22:54.335Z,23.33
2022-08-30T20:26:59.734Z,23.25
2022-08-30T20:31:06.941Z,23.18
2022-08-30T20:35:11.112Z,23.11
2022-08-30T20:39:17.638Z,23.06
2022-08-30T20:43:24.966Z,22.97
2022-08-30T20:47:28.635Z,22.88
2022-08-30T20:51:31.934Z,22.81
2022-08-30T20:55:42.568Z,22.72
2022-08-30T20:59:47.257Z,22.65
2022-08-30T21:03:52.180Z,22.59
2022-08-30T21:07:55.587Z,22.49
2022-08-30T21:11:59.288Z,22.46
2022-08-30T21:16:04.529Z,22.44
2022-08-30T21:20:09.845Z,22.41
2022-08-30T21:24:13.088Z,22.38
2022-08-30T21:28:17.645Z,22.33
2022-08-30T21:32:22.659Z,22.28
2022-08-30T21:36:45.250Z,22.25
2022-08-30T21:40:48.995Z,22.17
2022-08-30T21:44:52.271Z,22.11
2022-08-30T21:48:59.221Z,22.06
2022-08-30T21:53:02.625Z,21.98
2022-08-30T21:57:07.133Z,21.93
2022-08-30T22:01:11.890Z,21.87
2022-08-30T22:05:16.709Z,21.79
2022-08-30T22:09:23.477Z,21.74
2022-08-30T22:13:26.926Z,21.69
2022-08-30T22:17:31.691Z,21.65
2022-08-30T22:21:41.891Z,21.60
2022-08-30T22:25:45.352Z,21.55
2022-08-30T22:29:48.859Z,21.49
2022-08-30T22:33:53.393Z,21.40
2022-08-30T22:37:58.399Z,21.36
2022-08-30T22:42:01.862Z,21.30
2022-08-30T22:46:07.060Z,21.25
2022-08-30T22:50:10.980Z,21.23
2022-08-30T22:54:15.755Z,21.18
2022-08-30T22:58:19.566Z,21.15
2022-08-30T23:02:23.176Z,21.09
2022-08-30T23:06:26.763Z,21.03
2022-08-30T23:10:31.469Z,20.97
2022-08-30T23:14:34.934Z,20.91
2022-08-30T23:18:40.627Z,20.86
2022-08-30T23:22:44.252Z,20.82
2022-08-30T23:27:06.308Z,20.77
2022-08-30T23:31:28.999Z,20.71
2022-08-30T23:35:49.844Z,20.65
2022-08-30T23:40:10.990Z,20.60
2022-08-30T23:44:32.922Z,20.55
2022-08-30T23:48:53.945Z,20.48
2022-08-30T23:53:14.660Z,20.42
2022-08-30T23:57:35.462Z,20.39
